Warning: Javascript must be enabled to use all the features on this page!


Page Loading - Please Wait...

Click to hideNews Bulletins
  • Try our new Mobile-friendly water data site from your mobile device!
  • Full News RSS icon
  • Click to hide state-specific text

    Welcome to the NWIS-Web for the Arizona Water Science Center


    The majority of USGS Gaging Stations are funded though a cooperative program between the USGS other interested agencies.
    Follow this link for information on the Cooperative Water Program with the USGS.


    Threatened and Endangered USGS Gaging Stations in Arizona
    Colorado Basin River Forecast Center - provided by the National Weather Service, AHPS. CBRFC on Google Maps.
    Arizona Water Science Center Home Page

    USGS 09471000 SAN PEDRO RIVER AT CHARLESTON, AZ.

    PROVISIONAL DATA SUBJECT TO REVISION

    Click to hidestation-specific text
    Station operated in cooperation with Cochise County, the Bureau of Land Management, and the Arizona Department of Water Resources.

    HIGH DATA RATE (Site data are transmitted & updated hourly)
    rainfall Arrow
    This station managed by the Tucson Field Office; USGS, AZ-WSC.

    Available Parameters Available Period
    All 3 Available Parameters for this site
      
    00065 Gage height [Bubbler Stage Sensor] 2007-10-01  2014-08-27
    00060 Discharge 2007-10-01  2014-08-27
    00045 Precipitation 2014-04-29  2014-08-27

    Graph
    Graph w/ stats
    Graph w/o stats
    Graph w/ (up to 3) parms
    Table
    Tab-separated
    Days  (7)
     

      -- or --
    Begin date
     

    End date
     

    Summary of all available data for this site
    Instantaneous-data availability statement






    Date / Time




    Gage
    height,
    feet,
    [Bubbler
    Stage
    Sensor]




    Dis-
    charge,
    ft3/s,



    Precip-
    itation
    total,
    inches,
    08/20/2014 00:00 MST4.01P  390P  0.00P  
    08/20/2014 00:15 MST4.00P  386P  0.00P  
    08/20/2014 00:30 MST3.99P  382P  0.00P  
    08/20/2014 00:45 MST3.97P  374P  0.00P  
    08/20/2014 01:00 MST3.95P  365P  0.00P  
    08/20/2014 01:15 MST3.84P  331P  0.00P  
    08/20/2014 01:30 MST3.83P  327P  0.00P  
    08/20/2014 01:45 MST3.79P  312P  0.00P  
    08/20/2014 02:00 MST3.77P  305P  0.00P  
    08/20/2014 02:15 MST3.74P  298P  0.00P  
    08/20/2014 02:30 MST3.73P  294P  0.00P  
    08/20/2014 02:45 MST3.69P  281P  0.00P  
    08/20/2014 03:00 MST3.69P  281P  0.00P  
    08/20/2014 03:15 MST3.66P  274P  0.00P  
    08/20/2014 03:30 MST3.64P  267P  0.00P  
    08/20/2014 03:45 MST3.64P  267P  0.00P  
    08/20/2014 04:00 MST3.62P  261P  0.00P  
    08/20/2014 04:15 MST3.63P  264P  0.00P  
    08/20/2014 04:30 MST3.64P  267P  0.00P  
    08/20/2014 04:45 MST3.66P  274P  0.00P  
    08/20/2014 05:00 MST3.66P  274P  0.00P  
    08/20/2014 05:15 MST3.72P  291P  0.00P  
    08/20/2014 05:30 MST3.73P  294P  0.00P  
    08/20/2014 05:45 MST3.75P  301P  0.00P  
    08/20/2014 06:00 MST3.82P  323P  0.00P  
    08/20/2014 06:15 MST3.79P  312P  0.00P  
    08/20/2014 06:30 MST3.78P  308P  0.00P  
    08/20/2014 06:45 MST3.79P  312P  0.00P  
    08/20/2014 07:00 MST3.79P  312P  0.00P  
    08/20/2014 07:15 MST3.79P  312P  0.00P  
    08/20/2014 07:30 MST3.79P  312P  0.00P  
    08/20/2014 07:45 MST3.80P  316P  0.00P  
    08/20/2014 08:00 MST3.75P  301P  0.00P  
    08/20/2014 08:15 MST3.73P  294P  0.00P  
    08/20/2014 08:30 MST3.69P  281P  0.00P  
    08/20/2014 08:45 MST3.66P  274P  0.00P  
    08/20/2014 09:00 MST3.65P  271P  0.00P  
    08/20/2014 09:15 MST3.60P  254P  0.00P  
    08/20/2014 09:30 MST3.57P  248P  0.00P  
    08/20/2014 09:45 MST3.52P  233P  0.00P  
    08/20/2014 10:00 MST3.48P  224P  0.00P  
    08/20/2014 10:15 MST3.49P  227P  0.00P  
    08/20/2014 10:30 MST3.46P  218P  0.00P  
    08/20/2014 10:45 MST3.44P  212P  0.00P  
    08/20/2014 11:00 MST3.41P  206P  0.00P  
    08/20/2014 11:15 MST3.36P  192P  0.00P  
    08/20/2014 11:30 MST3.38P  198P  0.00P  
    08/20/2014 11:45 MST3.36P  192P  0.00P  
    08/20/2014 12:00 MST3.32P  184P  0.00P  
    08/20/2014 12:15 MST3.31P  181P  0.00P  
    08/20/2014 12:30 MST3.30P  178P  0.00P  
    08/20/2014 12:45 MST3.29P  176P  0.00P  
    08/20/2014 13:00 MST3.27P  170P  0.00P  
    08/20/2014 13:15 MST3.25P  165P  0.00P  
    08/20/2014 13:30 MST3.23P  160P  0.00P  
    08/20/2014 13:45 MST3.23P  160P  0.00P  
    08/20/2014 14:00 MST3.20P  153P  0.01P  
    08/20/2014 14:15 MST3.18P  148P  0.02P  
    08/20/2014 14:30 MST3.16P  143P  0.01P  
    08/20/2014 14:45 MST3.14P  139P  0.00P  
    08/20/2014 15:00 MST3.15P  141P  0.00P  
    08/20/2014 15:15 MST3.13P  136P  0.00P  
    08/20/2014 15:30 MST3.12P  134P  0.00P  
    08/20/2014 15:45 MST3.11P  132P  0.00P  
    08/20/2014 16:00 MST3.09P  128P  0.00P  
    08/20/2014 16:15 MST3.09P  128P  0.01P  
    08/20/2014 16:30 MST3.07P  123P  0.00P  
    08/20/2014 16:45 MST3.05P  119P  0.00P  
    08/20/2014 17:00 MST3.05P  119P  0.00P  
    08/20/2014 17:15 MST3.02P  113P  0.00P  
    08/20/2014 17:30 MST3.01P  111P  0.00P  
    08/20/2014 17:45 MST3.01P  111P  0.00P  
    08/20/2014 18:00 MST2.99P  107P  0.00P  
    08/20/2014 18:15 MST2.97P  104P  0.00P  
    08/20/2014 18:30 MST2.98P  105P  0.00P  
    08/20/2014 18:45 MST2.96P  102P  0.00P  
    08/20/2014 19:00 MST2.96P  102P  0.00P  
    08/20/2014 19:14 MST2.96P  102P  0.00P  
    08/20/2014 19:15 MST2.96P  102P  0.00P  
    08/20/2014 19:29 MST2.94P  98.0P  0.00P  
    08/20/2014 19:30 MST2.94P  98.0P  0.00P  
    08/20/2014 19:45 MST2.94P  98.0P  0.00P  
    08/20/2014 20:00 MST2.93P  96.2P  0.00P  
    08/20/2014 20:15 MST2.93P  96.2P  0.00P  
    08/20/2014 20:30 MST2.92P  94.4P  0.00P  
    08/20/2014 20:45 MST2.91P  92.7P  0.00P  
    08/20/2014 21:00 MST2.90P  91.0P  0.00P  
    08/20/2014 21:15 MST2.88P  87.6P  0.00P  
    08/20/2014 21:30 MST2.89P  89.3P  0.00P  
    08/20/2014 21:45 MST2.85P  82.6P  0.00P  
    08/20/2014 22:00 MST2.88P  87.6P  0.00P  
    08/20/2014 22:15 MST2.86P  84.3P  0.00P  
    08/20/2014 22:30 MST2.86P  84.3P  0.00P  
    08/20/2014 22:45 MST2.86P  84.3P  0.00P  
    08/20/2014 23:00 MST2.85P  82.6P  0.00P  
    08/20/2014 23:15 MST2.83P  79.5P  0.00P  
    08/20/2014 23:30 MST2.80P  74.8P  0.00P  
    08/20/2014 23:45 MST2.82P  77.9P  0.00P  
    08/21/2014 00:00 MST2.82P  77.9P  0.00P  
    08/21/2014 00:15 MST2.80P  74.8P  0.00P  
    08/21/2014 00:30 MST2.80P  74.8P  0.00P  
    08/21/2014 00:45 MST2.80P  74.8P  0.00P  
    08/21/2014 01:00 MST2.79P  73.4P  0.00P  
    08/21/2014 01:15 MST2.79P  73.4P  0.00P  
    08/21/2014 01:30 MST2.78P  71.9P  0.00P  
    08/21/2014 01:45 MST2.77P  70.4P  0.00P  
    08/21/2014 02:00 MST2.76P  69.0P  0.00P  
    08/21/2014 02:15 MST2.76P  69.0P  0.00P  
    08/21/2014 02:30 MST2.76P  69.0P  0.00P  
    08/21/2014 02:45 MST2.74P  66.2P  0.00P  
    08/21/2014 03:00 MST2.74P  66.2P  0.00P  
    08/21/2014 03:15 MST2.75P  67.6P  0.00P  
    08/21/2014 03:30 MST2.75P  67.6P  0.00P  
    08/21/2014 03:45 MST2.74P  66.2P  0.00P  
    08/21/2014 04:00 MST2.73P  64.8P  0.00P  
    08/21/2014 04:15 MST2.73P  64.8P  0.00P  
    08/21/2014 04:30 MST2.73P  64.8P  0.00P  
    08/21/2014 04:45 MST2.72P  63.4P  0.00P  
    08/21/2014 05:00 MST2.73P  64.8P  0.00P  
    08/21/2014 05:15 MST2.71P  62.1P  0.00P  
    08/21/2014 05:30 MST2.71P  62.1P  0.00P  
    08/21/2014 05:45 MST2.69P  59.4P  0.00P  
    08/21/2014 06:00 MST2.70P  60.7P  0.00P  
    08/21/2014 06:15 MST2.70P  60.7P  0.00P  
    08/21/2014 06:30 MST2.69P  59.4P  0.00P  
    08/21/2014 06:45 MST2.70P  60.7P  0.00P  
    08/21/2014 07:00 MST2.69P  59.4P  0.00P  
    08/21/2014 07:15 MST2.68P  58.2P  0.00P  
    08/21/2014 07:30 MST2.68P  58.2P  0.00P  
    08/21/2014 07:45 MST2.68P  58.2P  0.00P  
    08/21/2014 08:00 MST2.68P  58.2P  0.00P  
    08/21/2014 08:15 MST2.67P  56.9P  0.00P  
    08/21/2014 08:30 MST2.67P  56.9P  0.00P  
    08/21/2014 08:45 MST2.66P  55.6P  0.00P  
    08/21/2014 09:00 MST2.67P  56.9P  0.00P  
    08/21/2014 09:15 MST2.67P  56.9P  0.00P  
    08/21/2014 09:30 MST2.64P  53.2P  0.00P  
    08/21/2014 09:45 MST2.65P  54.4P  0.00P  
    08/21/2014 10:00 MST2.64P  53.2P  0.00P  
    08/21/2014 10:15 MST2.64P  53.2P  0.00P  
    08/21/2014 10:30 MST2.64P  53.2P  0.00P  
    08/21/2014 10:45 MST2.65P  54.4P  0.00P  
    08/21/2014 11:00 MST2.64P  53.2P  0.00P  
    08/21/2014 11:15 MST2.64P  53.2P  0.00P  
    08/21/2014 11:30 MST2.63P  52.0P  0.00P  
    08/21/2014 11:45 MST2.63P  52.0P  0.00P  
    08/21/2014 12:00 MST2.63P  52.0P  0.00P  
    08/21/2014 12:15 MST2.62P  50.8P  0.00P  
    08/21/2014 12:30 MST2.62P  50.8P  0.00P  
    08/21/2014 12:45 MST2.61P  49.7P  0.00P  
    08/21/2014 13:00 MST2.61P  49.7P  0.00P  
    08/21/2014 13:15 MST2.61P  49.7P  0.00P  
    08/21/2014 13:30 MST2.61P  49.7P  0.00P  
    08/21/2014 13:45 MST2.59P  47.4P  0.00P  
    08/21/2014 14:00 MST2.59P  47.4P  0.00P  
    08/21/2014 14:15 MST2.60P  48.5P  0.00P  
    08/21/2014 14:30 MST2.58P  46.3P  0.00P  
    08/21/2014 14:45 MST2.59P  47.4P  0.00P  
    08/21/2014 15:00 MST2.57P  45.2P  0.00P  
    08/21/2014 15:15 MST2.58P  46.3P  0.00P  
    08/21/2014 15:30 MST2.56P  44.1P  0.00P  
    08/21/2014 15:45 MST2.57P  45.2P  0.00P  
    08/21/2014 16:00 MST2.57P  45.2P  0.00P  
    08/21/2014 16:15 MST2.57P  45.2P  0.00P  
    08/21/2014 16:30 MST2.56P  44.1P  0.00P  
    08/21/2014 16:45 MST2.57P  45.2P  0.00P  
    08/21/2014 17:00 MST2.55P  43.1P  0.00P  
    08/21/2014 17:15 MST2.56P  44.1P  0.00P  
    08/21/2014 17:30 MST2.56P  44.1P  0.00P  
    08/21/2014 17:45 MST2.55P  43.1P  0.00P  
    08/21/2014 18:00 MST2.55P  43.1P  0.00P  
    08/21/2014 18:15 MST2.55P  43.1P  0.00P  
    08/21/2014 18:30 MST2.54P  42.0P  0.00P  
    08/21/2014 18:45 MST2.54P  42.0P  0.00P  
    08/21/2014 19:00 MST2.54P  42.0P  0.00P  
    08/21/2014 19:14 MST2.54P  42.0P  0.00P  
    08/21/2014 19:15 MST2.54P  42.0P  0.00P  
    08/21/2014 19:29 MST2.53P  41.0P  0.00P  
    08/21/2014 19:30 MST2.53P  41.0P  0.00P  
    08/21/2014 19:45 MST2.53P  41.0P  0.00P  
    08/21/2014 20:00 MST2.52P  40.0P  0.00P  
    08/21/2014 20:15 MST2.52P  40.0P  0.00P  
    08/21/2014 20:30 MST2.52P  40.0P  0.00P  
    08/21/2014 20:45 MST2.53P  41.0P  0.00P  
    08/21/2014 21:00 MST2.52P  40.0P  0.00P  
    08/21/2014 21:15 MST2.51P  39.0P  0.00P  
    08/21/2014 21:30 MST2.51P  39.0P  0.00P  
    08/21/2014 21:45 MST2.51P  39.0P  0.00P  
    08/21/2014 22:00 MST2.51P  39.0P  0.00P  
    08/21/2014 22:15 MST2.52P  40.0P  0.00P  
    08/21/2014 22:30 MST2.52P  40.0P  0.00P  
    08/21/2014 22:45 MST2.52P  40.0P  0.00P  
    08/21/2014 23:00 MST2.53P  41.0P  0.00P  
    08/21/2014 23:15 MST2.56P  44.1P  0.00P  
    08/21/2014 23:30 MST2.59P  47.4P  0.00P  
    08/21/2014 23:45 MST2.64P  53.2P  0.00P  
    08/22/2014 00:00 MST2.69P  59.4P  0.00P  
    08/22/2014 00:15 MST2.72P  63.4P  0.00P  
    08/22/2014 00:30 MST2.76P  69.0P  0.00P  
    08/22/2014 00:45 MST2.77P  70.4P  0.00P  
    08/22/2014 01:00 MST2.78P  71.9P  0.00P  
    08/22/2014 01:15 MST2.79P  73.4P  0.00P  
    08/22/2014 01:30 MST2.79P  73.4P  0.00P  
    08/22/2014 01:45 MST2.79P  73.4P  0.00P  
    08/22/2014 02:00 MST2.77P  70.4P  0.00P  
    08/22/2014 02:15 MST2.79P  73.4P  0.00P  
    08/22/2014 02:30 MST2.78P  71.9P  0.00P  
    08/22/2014 02:45 MST2.80P  74.8P  0.00P  
    08/22/2014 03:00 MST2.78P  71.9P  0.00P  
    08/22/2014 03:15 MST2.79P  73.4P  0.00P  
    08/22/2014 03:30 MST2.77P  70.4P  0.00P  
    08/22/2014 03:45 MST2.77P  70.4P  0.00P  
    08/22/2014 04:00 MST2.76P  69.0P  0.00P  
    08/22/2014 04:15 MST2.76P  69.0P  0.00P  
    08/22/2014 04:30 MST2.75P  67.6P  0.00P  
    08/22/2014 04:45 MST2.74P  66.2P  0.00P  
    08/22/2014 05:00 MST2.74P  66.2P  0.00P  
    08/22/2014 05:15 MST2.74P  66.2P  0.00P  
    08/22/2014 05:30 MST2.73P  64.8P  0.00P  
    08/22/2014 05:45 MST2.73P  64.8P  0.00P  
    08/22/2014 06:00 MST2.72P  63.4P  0.00P  
    08/22/2014 06:15 MST2.74P  66.2P  0.00P  
    08/22/2014 06:30 MST2.73P  64.8P  0.00P  
    08/22/2014 06:45 MST2.72P  63.4P  0.00P  
    08/22/2014 07:00 MST2.71P  62.1P  0.00P  
    08/22/2014 07:15 MST2.71P  62.1P  0.00P  
    08/22/2014 07:30 MST2.69P  59.4P  0.00P  
    08/22/2014 07:45 MST2.69P  59.4P  0.00P  
    08/22/2014 08:00 MST2.70P  60.7P  0.00P  
    08/22/2014 08:15 MST2.69P  59.4P  0.00P  
    08/22/2014 08:30 MST2.68P  58.2P  0.00P  
    08/22/2014 08:45 MST2.67P  56.9P  0.00P  
    08/22/2014 09:00 MST2.67P  56.9P  0.00P  
    08/22/2014 09:15 MST2.67P  56.9P  0.00P  
    08/22/2014 09:30 MST2.65P  54.4P  0.00P  
    08/22/2014 09:45 MST2.67P  56.9P  0.00P  
    08/22/2014 10:00 MST2.66P  55.6P  0.00P  
    08/22/2014 10:15 MST2.65P  54.4P  0.00P  
    08/22/2014 10:30 MST2.64P  53.2P  0.00P  
    08/22/2014 10:45 MST2.64P  53.2P  0.00P  
    08/22/2014 11:00 MST2.63P  52.0P  0.00P  
    08/22/2014 11:15 MST2.63P  52.0P  0.00P  
    08/22/2014 11:30 MST2.62P  50.8P  0.00P  
    08/22/2014 11:45 MST2.62P  50.8P  0.00P  
    08/22/2014 12:00 MST2.62P  50.8P  0.00P  
    08/22/2014 12:15 MST2.62P  50.8P  0.00P  
    08/22/2014 12:30 MST2.62P  50.8P  0.00P  
    08/22/2014 12:45 MST2.62P  50.8P  0.00P  
    08/22/2014 13:00 MST2.61P  49.7P  0.00P  
    08/22/2014 13:15 MST2.60P  48.5P  0.00P  
    08/22/2014 13:30 MST2.59P  47.4P  0.00P  
    08/22/2014 13:45 MST2.60P  48.5P  0.00P  
    08/22/2014 14:00 MST2.59P  47.4P  0.01P  
    08/22/2014 14:15 MST2.61P  49.7P  0.02P  
    08/22/2014 14:30 MST2.61P  49.7P  0.02P  
    08/22/2014 14:45 MST2.66P  55.6P  0.08P  
    08/22/2014 15:00 MST2.96P  102P  0.23P  
    08/22/2014 15:15 MST3.50P  230P  0.01P  
    08/22/2014 15:30 MST3.90P  350P  0.00P  
    08/22/2014 15:45 MST4.11P  424P  0.00P  
    08/22/2014 16:00 MST4.06P  407P  0.00P  
    08/22/2014 16:15 MST4.16P  447P  0.00P  
    08/22/2014 16:30 MST4.17P  451P  0.00P  
    08/22/2014 16:45 MST4.07P  411P  0.00P  
    08/22/2014 17:00 MST3.91P  354P  0.00P  
    08/22/2014 17:15 MST3.84P  331P  0.00P  
    08/22/2014 17:30 MST3.85P  331P  0.00P  
    08/22/2014 17:45 MST3.78P  308P  0.00P  
    08/22/2014 18:00 MST3.76P  305P  0.00P  
    08/22/2014 18:15 MST3.66P  274P  0.00P  
    08/22/2014 18:30 MST3.51P  230P  0.00P  
    08/22/2014 18:45 MST3.38P  198P  0.00P  
    08/22/2014 19:00 MST3.25P  165P  0.00P  
    08/22/2014 19:15 MST3.12P  134P  0.00P  
    08/22/2014 19:29 MST3.12P  134P  0.00P  
    08/22/2014 19:30 MST3.01P  111P  0.00P  
    08/22/2014 19:44 MST3.01P  111P  0.00P  
    08/22/2014 19:45 MST2.93P  96.2P  0.00P  
    08/22/2014 20:00 MST2.85P  82.6P  0.00P  
    08/22/2014 20:15 MST2.78P  71.9P  0.00P  
    08/22/2014 20:30 MST2.73P  64.8P  0.00P  
    08/22/2014 20:45 MST2.68P  58.2P  0.00P  
    08/22/2014 21:00 MST2.65P  54.4P  0.00P  
    08/22/2014 21:15 MST2.61P  49.7P  0.00P  
    08/22/2014 21:30 MST2.59P  47.4P  0.00P  
    08/22/2014 21:45 MST2.57P  45.2P  0.00P  
    08/22/2014 22:00 MST2.56P  44.1P  0.00P  
    08/22/2014 22:15 MST2.55P  43.1P  0.00P  
    08/22/2014 22:30 MST2.54P  42.0P  0.00P  
    08/22/2014 22:45 MST2.53P  41.0P  0.00P  
    08/22/2014 23:00 MST2.53P  41.0P  0.00P  
    08/22/2014 23:15 MST2.53P  41.0P  0.00P  
    08/22/2014 23:30 MST2.53P  41.0P  0.00P  
    08/22/2014 23:45 MST2.54P  42.0P  0.00P  
    08/23/2014 00:00 MST2.55P  43.1P  0.00P  
    08/23/2014 00:15 MST2.57P  45.2P  0.00P  
    08/23/2014 00:30 MST2.59P  47.4P  0.00P  
    08/23/2014 00:45 MST2.64P  53.2P  0.00P  
    08/23/2014 01:00 MST2.69P  59.4P  0.00P  
    08/23/2014 01:15 MST2.75P  67.6P  0.00P  
    08/23/2014 01:30 MST2.76P  69.0P  0.00P  
    08/23/2014 01:45 MST2.78P  71.9P  0.00P  
    08/23/2014 02:00 MST2.80P  74.8P  0.00P  
    08/23/2014 02:15 MST2.79P  73.4P  0.00P  
    08/23/2014 02:30 MST2.79P  73.4P  0.00P  
    08/23/2014 02:45 MST2.80P  74.8P  0.00P  
    08/23/2014 03:00 MST2.77P  70.4P  0.00P  
    08/23/2014 03:15 MST2.76P  69.0P  0.00P  
    08/23/2014 03:30 MST2.75P  67.6P  0.00P  
    08/23/2014 03:45 MST2.73P  64.8P  0.00P  
    08/23/2014 04:00 MST2.72P  63.4P  0.00P  
    08/23/2014 04:15 MST2.72P  63.4P  0.00P  
    08/23/2014 04:30 MST2.70P  60.7P  0.00P  
    08/23/2014 04:45 MST2.68P  58.2P  0.00P  
    08/23/2014 05:00 MST2.67P  56.9P  0.00P  
    08/23/2014 05:15 MST2.67P  56.9P  0.00P  
    08/23/2014 05:30 MST2.64P  53.2P  0.00P  
    08/23/2014 05:45 MST2.64P  53.2P  0.00P  
    08/23/2014 06:00 MST2.63P  52.0P  0.00P  
    08/23/2014 06:15 MST2.61P  49.7P  0.00P  
    08/23/2014 06:30 MST2.61P  49.7P  0.00P  
    08/23/2014 06:45 MST2.60P  48.5P  0.00P  
    08/23/2014 07:00 MST2.59P  47.4P  0.00P  
    08/23/2014 07:15 MST2.58P  46.3P  0.00P  
    08/23/2014 07:30 MST2.57P  45.2P  0.00P  
    08/23/2014 07:45 MST2.55P  43.1P  0.00P  
    08/23/2014 08:00 MST2.55P  43.1P  0.00P  
    08/23/2014 08:15 MST2.55P  43.1P  0.00P  
    08/23/2014 08:30 MST2.54P  42.0P  0.00P  
    08/23/2014 08:45 MST2.54P  42.0P  0.00P  
    08/23/2014 09:00 MST2.52P  40.0P  0.00P  
    08/23/2014 09:15 MST2.52P  40.0P  0.00P  
    08/23/2014 09:30 MST2.52P  40.0P  0.00P  
    08/23/2014 09:45 MST2.51P  39.0P  0.00P  
    08/23/2014 10:00 MST2.50P  38.0P  0.00P  
    08/23/2014 10:15 MST2.50P  38.0P  0.00P  
    08/23/2014 10:30 MST2.49P  37.1P  0.00P  
    08/23/2014 10:45 MST2.49P  37.1P  0.00P  
    08/23/2014 11:00 MST2.48P  36.1P  0.00P  
    08/23/2014 11:15 MST2.48P  36.1P  0.00P  
    08/23/2014 11:30 MST2.48P  36.1P  0.00P  
    08/23/2014 11:45 MST2.48P  36.1P  0.00P  
    08/23/2014 12:00 MST2.47P  35.2P  0.00P  
    08/23/2014 12:15 MST2.47P  35.2P  0.00P  
    08/23/2014 12:30 MST2.46P  34.3P  0.00P  
    08/23/2014 12:45 MST2.46P  34.3P  0.00P  
    08/23/2014 13:00 MST2.45P  33.4P  0.00P  
    08/23/2014 13:15 MST2.45P  33.4P  0.00P  
    08/23/2014 13:30 MST2.44P  32.5P  0.00P  
    08/23/2014 13:45 MST2.44P  32.5P  0.00P  
    08/23/2014 14:00 MST2.44P  32.5P  0.00P  
    08/23/2014 14:15 MST2.44P  32.5P  0.00P  
    08/23/2014 14:30 MST2.43P  31.6P  0.00P  
    08/23/2014 14:45 MST2.43P  31.6P  0.00P  
    08/23/2014 15:00 MST2.43P  31.6P  0.00P  
    08/23/2014 15:15 MST2.43P  31.6P  0.00P  
    08/23/2014 15:30 MST2.42P  30.8P  0.00P  
    08/23/2014 15:45 MST2.42P  30.8P  0.00P  
    08/23/2014 16:00 MST2.42P  30.8P  0.00P  
    08/23/2014 16:15 MST2.42P  30.8P  0.00P  
    08/23/2014 16:30 MST2.41P  29.9P  0.00P  
    08/23/2014 16:45 MST2.41P  29.9P  0.00P  
    08/23/2014 17:00 MST2.41P  29.9P  0.00P  
    08/23/2014 17:15 MST2.41P  29.9P  0.00P  
    08/23/2014 17:30 MST2.40P  29.1P  0.00P  
    08/23/2014 17:45 MST2.40P  29.1P  0.00P  
    08/23/2014 18:00 MST2.40P  29.1P  0.00P  
    08/23/2014 18:15 MST2.39P  28.3P  0.00P  
    08/23/2014 18:30 MST2.39P  28.3P  0.00P  
    08/23/2014 18:45 MST2.40P  29.1P  0.00P  
    08/23/2014 19:00 MST2.39P  28.3P  0.00P  
    08/23/2014 19:15 MST2.39P  28.3P  0.00P  
    08/23/2014 19:29 MST2.39P  28.3P  0.00P  
    08/23/2014 19:30 MST2.39P  28.3P  0.00P  
    08/23/2014 19:44 MST2.39P  28.3P  0.00P  
    08/23/2014 19:45 MST2.39P  28.3P  0.00P  
    08/23/2014 20:00 MST2.39P  28.3P  0.00P  
    08/23/2014 20:15 MST2.38P  27.5P  0.00P  
    08/23/2014 20:30 MST2.38P  27.5P  0.00P  
    08/23/2014 20:45 MST2.38P  27.5P  0.00P  
    08/23/2014 21:00 MST2.38P  27.5P  0.00P  
    08/23/2014 21:15 MST2.38P  27.5P  0.00P  
    08/23/2014 21:30 MST2.37P  26.8P  0.00P  
    08/23/2014 21:45 MST2.38P  27.5P  0.00P  
    08/23/2014 22:00 MST2.38P  27.5P  0.00P  
    08/23/2014 22:15 MST2.37P  26.8P  0.00P  
    08/23/2014 22:30 MST2.38P  27.5P  0.00P  
    08/23/2014 22:45 MST2.37P  26.8P  0.00P  
    08/23/2014 23:00 MST2.37P  26.8P  0.00P  
    08/23/2014 23:15 MST2.37P  26.8P  0.00P  
    08/23/2014 23:30 MST2.37P  26.8P  0.00P  
    08/23/2014 23:45 MST2.37P  26.8P  0.00P  
    08/24/2014 00:00 MST2.37P  26.8P  0.00P  
    08/24/2014 00:15 MST2.37P  26.8P  0.00P  
    08/24/2014 00:30 MST2.37P  26.8P  0.00P  
    08/24/2014 00:45 MST2.37P  26.8P  0.00P  
    08/24/2014 01:00 MST2.37P  26.8P  0.00P  
    08/24/2014 01:15 MST2.37P  26.8P  0.00P  
    08/24/2014 01:30 MST2.37P  26.8P  0.00P  
    08/24/2014 01:45 MST2.37P  26.8P  0.00P  
    08/24/2014 02:00 MST2.37P  26.8P  0.00P  
    08/24/2014 02:15 MST2.37P  26.8P  0.00P  
    08/24/2014 02:30 MST2.37P  26.8P  0.00P  
    08/24/2014 02:45 MST2.36P  26.0P  0.00P  
    08/24/2014 03:00 MST2.36P  26.0P  0.00P  
    08/24/2014 03:15 MST2.36P  26.0P  0.00P  
    08/24/2014 03:30 MST2.36P  26.0P  0.00P  
    08/24/2014 03:45 MST2.36P  26.0P  0.00P  
    08/24/2014 04:00 MST2.36P  26.0P  0.00P  
    08/24/2014 04:15 MST2.36P  26.0P  0.00P  
    08/24/2014 04:30 MST2.36P  26.0P  0.00P  
    08/24/2014 04:45 MST2.36P  26.0P  0.00P  
    08/24/2014 05:00 MST2.36P  26.0P  0.00P  
    08/24/2014 05:15 MST2.36P  26.0P  0.00P  
    08/24/2014 05:30 MST2.36P  26.0P  0.00P  
    08/24/2014 05:45 MST2.36P  26.0P  0.00P  
    08/24/2014 06:00 MST2.36P  26.0P  0.00P  
    08/24/2014 06:15 MST2.36P  26.0P  0.00P  
    08/24/2014 06:30 MST2.36P  26.0P  0.00P  
    08/24/2014 06:45 MST2.36P  26.0P  0.00P  
    08/24/2014 07:00 MST2.36P  26.0P  0.00P  
    08/24/2014 07:15 MST2.36P  26.0P  0.00P  
    08/24/2014 07:30 MST2.36P  26.0P  0.00P  
    08/24/2014 07:45 MST2.36P  26.0P  0.00P  
    08/24/2014 08:00 MST2.36P  26.0P  0.00P  
    08/24/2014 08:15 MST2.36P  26.0P  0.00P  
    08/24/2014 08:30 MST2.36P  26.0P  0.00P  
    08/24/2014 08:45 MST2.36P  26.0P  0.00P  
    08/24/2014 09:00 MST2.35P  25.2P  0.00P  
    08/24/2014 09:15 MST2.35P  25.2P  0.00P  
    08/24/2014 09:30 MST2.35P  25.2P  0.00P  
    08/24/2014 09:45 MST2.35P  25.2P  0.00P  
    08/24/2014 10:00 MST2.35P  25.2P  0.00P  
    08/24/2014 10:15 MST2.35P  25.2P  0.00P  
    08/24/2014 10:30 MST2.35P  25.2P  0.00P  
    08/24/2014 10:45 MST2.35P  25.2P  0.00P  
    08/24/2014 11:00 MST2.35P  25.2P  0.00P  
    08/24/2014 11:15 MST2.34P  24.5P  0.00P  
    08/24/2014 11:30 MST2.34P  24.5P  0.00P  
    08/24/2014 11:45 MST2.34P  24.5P  0.00P  
    08/24/2014 12:00 MST2.34P  24.5P  0.00P  
    08/24/2014 12:15 MST2.34P  24.5P  0.00P  
    08/24/2014 12:30 MST2.34P  24.5P  0.00P  
    08/24/2014 12:45 MST2.34P  24.5P  0.00P  
    08/24/2014 13:00 MST2.33P  23.8P  0.00P  
    08/24/2014 13:15 MST2.33P  23.8P  0.00P  
    08/24/2014 13:30 MST2.33P  23.8P  0.00P  
    08/24/2014 13:45 MST2.33P  23.8P  0.00P  
    08/24/2014 14:00 MST2.33P  23.8P  0.00P  
    08/24/2014 14:15 MST2.33P  23.8P  0.00P  
    08/24/2014 14:30 MST2.33P  23.8P  0.00P  
    08/24/2014 14:45 MST2.32P  23.1P  0.00P  
    08/24/2014 15:00 MST2.32P  23.1P  0.00P  
    08/24/2014 15:15 MST2.32P  23.1P  0.00P  
    08/24/2014 15:30 MST2.32P  23.1P  0.00P  
    08/24/2014 15:45 MST2.32P  23.1P  0.00P  
    08/24/2014 16:00 MST2.32P  23.1P  0.00P  
    08/24/2014 16:15 MST2.33P  23.8P  0.00P  
    08/24/2014 16:30 MST2.32P  23.1P  0.00P  
    08/24/2014 16:45 MST2.33P  23.8P  0.00P  
    08/24/2014 17:00 MST2.32P  23.1P  0.00P  
    08/24/2014 17:15 MST2.32P  23.1P  0.00P  
    08/24/2014 17:30 MST2.32P  23.1P  0.00P  
    08/24/2014 17:45 MST2.32P  23.1P  0.00P  
    08/24/2014 18:00 MST2.32P  23.1P  0.00P  
    08/24/2014 18:15 MST2.32P  23.1P  0.00P  
    08/24/2014 18:30 MST2.32P  23.1P  0.00P  
    08/24/2014 18:45 MST2.31P  22.4P  0.00P  
    08/24/2014 19:00 MST2.32P  23.1P  0.00P  
    08/24/2014 19:15 MST2.32P  23.1P  0.00P  
    08/24/2014 19:29 MST2.32P  23.1P  0.00P  
    08/24/2014 19:30 MST2.32P  23.1P  0.00P  
    08/24/2014 19:44 MST2.32P  23.1P  0.00P  
    08/24/2014 19:45 MST2.32P  23.1P  0.00P  
    08/24/2014 20:00 MST2.31P  22.4P  0.00P  
    08/24/2014 20:15 MST2.32P  23.1P  0.00P  
    08/24/2014 20:30 MST2.32P  23.1P  0.00P  
    08/24/2014 20:45 MST2.32P  23.1P  0.00P  
    08/24/2014 21:00 MST3.54P  239P  0.00P  
    08/24/2014 21:15 MST3.91P  354P  0.00P  
    08/24/2014 21:30 MST3.84P  331P  0.00P  
    08/24/2014 21:45 MST3.83P  327P  0.00P  
    08/24/2014 22:00 MST3.77P  305P  0.00P  
    08/24/2014 22:15 MST3.56P  245P  0.00P  
    08/24/2014 22:30 MST3.45P  215P  0.00P  
    08/24/2014 22:45 MST3.29P  176P  0.00P  
    08/24/2014 23:00 MST3.16P  143P  0.00P  
    08/24/2014 23:15 MST3.04P  117P  0.00P  
    08/24/2014 23:30 MST2.96P  102P  0.00P  
    08/24/2014 23:45 MST2.89P  89.3P  0.00P  
    08/25/2014 00:00 MST2.84P  81.0P  0.00P  
    08/25/2014 00:15 MST2.78P  71.9P  0.00P  
    08/25/2014 00:30 MST2.74P  66.2P  0.00P  
    08/25/2014 00:45 MST2.70P  60.7P  0.00P  
    08/25/2014 01:00 MST2.65P  54.4P  0.00P  
    08/25/2014 01:15 MST2.61P  49.7P  0.00P  
    08/25/2014 01:30 MST2.59P  47.4P  0.00P  
    08/25/2014 01:45 MST2.55P  43.1P  0.00P  
    08/25/2014 02:00 MST2.53P  41.0P  0.00P  
    08/25/2014 02:15 MST2.50P  38.0P  0.00P  
    08/25/2014 02:30 MST2.49P  37.1P  0.00P  
    08/25/2014 02:45 MST2.47P  35.2P  0.00P  
    08/25/2014 03:00 MST2.46P  34.3P  0.00P  
    08/25/2014 03:15 MST2.44P  32.5P  0.00P  
    08/25/2014 03:30 MST2.43P  31.6P  0.00P  
    08/25/2014 03:45 MST2.41P  29.9P  0.00P  
    08/25/2014 04:00 MST2.40P  29.1P  0.00P  
    08/25/2014 04:15 MST2.39P  28.3P  0.00P  
    08/25/2014 04:30 MST2.38P  27.5P  0.00P  
    08/25/2014 04:45 MST2.38P  27.5P  0.00P  
    08/25/2014 05:00 MST2.37P  26.8P  0.00P  
    08/25/2014 05:15 MST2.37P  26.8P  0.00P  
    08/25/2014 05:30 MST2.36P  26.0P  0.00P  
    08/25/2014 05:45 MST2.36P  26.0P  0.00P  
    08/25/2014 06:00 MST2.35P  25.2P  0.00P  
    08/25/2014 06:15 MST2.35P  25.2P  0.00P  
    08/25/2014 06:30 MST2.35P  25.2P  0.00P  
    08/25/2014 06:45 MST2.35P  25.2P  0.00P  
    08/25/2014 07:00 MST2.34P  24.5P  0.00P  
    08/25/2014 07:15 MST2.34P  24.5P  0.00P  
    08/25/2014 07:30 MST2.34P  24.5P  0.00P  
    08/25/2014 07:45 MST2.34P  24.5P  0.00P  
    08/25/2014 08:00 MST2.34P  24.5P  0.00P  
    08/25/2014 08:15 MST2.34P  24.5P  0.00P  
    08/25/2014 08:30 MST2.34P  24.5P  0.00P  
    08/25/2014 08:45 MST2.33P  23.8P  0.00P  
    08/25/2014 09:00 MST2.34P  24.5P  0.00P  
    08/25/2014 09:15 MST2.33P  23.8P  0.00P  
    08/25/2014 09:30 MST2.34P  24.5P  0.00P  
    08/25/2014 09:45 MST2.33P  23.8P  0.00P  
    08/25/2014 10:00 MST2.33P  23.8P  0.00P  
    08/25/2014 10:15 MST2.33P  23.8P  0.00P  
    08/25/2014 10:30 MST2.33P  23.8P  0.00P  
    08/25/2014 10:45 MST2.33P  23.8P  0.00P  
    08/25/2014 11:00 MST2.33P  23.8P  0.00P  
    08/25/2014 11:15 MST2.32P  23.1P  0.00P  
    08/25/2014 11:30 MST2.32P  23.1P  0.00P  
    08/25/2014 11:45 MST2.32P  23.1P  0.00P  
    08/25/2014 12:00 MST2.32P  23.1P  0.00P  
    08/25/2014 12:15 MST2.32P  23.1P  0.00P  
    08/25/2014 12:30 MST2.32P  23.1P  0.00P  
    08/25/2014 12:45 MST2.32P  23.1P  0.00P  
    08/25/2014 13:00 MST2.32P  23.1P  0.00P  
    08/25/2014 13:15 MST2.32P  23.1P  0.00P  
    08/25/2014 13:30 MST2.32P  23.1P  0.00P  
    08/25/2014 13:45 MST2.32P  23.1P  0.00P  
    08/25/2014 14:00 MST2.32P  23.1P  0.00P  
    08/25/2014 14:15 MST2.32P  23.1P  0.00P  
    08/25/2014 14:30 MST2.32P  23.1P  0.00P  
    08/25/2014 14:45 MST2.32P  23.1P  0.00P  
    08/25/2014 15:00 MST2.32P  23.1P  0.00P  
    08/25/2014 15:15 MST2.31P  22.4P  0.00P  
    08/25/2014 15:30 MST2.32P  23.1P  0.00P  
    08/25/2014 15:45 MST2.32P  23.1P  0.00P  
    08/25/2014 16:00 MST2.31P  22.4P  0.00P  
    08/25/2014 16:15 MST2.31P  22.4P  0.00P  
    08/25/2014 16:30 MST2.31P  22.4P  0.00P  
    08/25/2014 16:45 MST2.31P  22.4P  0.00P  
    08/25/2014 17:00 MST2.31P  22.4P  0.00P  
    08/25/2014 17:15 MST2.31P  22.4P  0.00P  
    08/25/2014 17:30 MST2.31P  22.4P  0.00P  
    08/25/2014 17:45 MST2.31P  22.4P  0.00P  
    08/25/2014 18:00 MST2.31P  22.4P  0.00P  
    08/25/2014 18:15 MST2.31P  22.4P  0.00P  
    08/25/2014 18:30 MST2.30P  21.7P  0.00P  
    08/25/2014 18:45 MST2.30P  21.7P  0.00P  
    08/25/2014 19:00 MST2.31P  22.4P  0.00P  
    08/25/2014 19:15 MST2.31P  22.4P  0.00P  
    08/25/2014 19:29 MST2.30P  21.7P  0.00P  
    08/25/2014 19:30 MST2.30P  21.7P  0.00P  
    08/25/2014 19:44 MST2.30P  21.7P  0.00P  
    08/25/2014 19:45 MST2.30P  21.7P  0.00P  
    08/25/2014 20:00 MST2.30P  21.7P  0.00P  
    08/25/2014 20:15 MST2.30P  21.7P  0.00P  
    08/25/2014 20:30 MST2.30P  21.7P  0.00P  
    08/25/2014 20:45 MST2.30P  21.7P  0.00P  
    08/25/2014 21:00 MST2.30P  21.7P  0.00P  
    08/25/2014 21:15 MST2.30P  21.7P  0.00P  
    08/25/2014 21:30 MST2.30P  21.7P  0.00P  
    08/25/2014 21:45 MST2.30P  21.7P  0.00P  
    08/25/2014 22:00 MST2.30P  21.7P  0.00P  
    08/25/2014 22:15 MST2.30P  21.7P  0.00P  
    08/25/2014 22:30 MST2.30P  21.7P  0.00P  
    08/25/2014 22:45 MST2.30P  21.7P  0.00P  
    08/25/2014 23:00 MST2.30P  21.7P  0.00P  
    08/25/2014 23:15 MST2.30P  21.7P  0.00P  
    08/25/2014 23:30 MST2.30P  21.7P  0.00P  
    08/25/2014 23:45 MST2.30P  21.7P  0.00P  
    08/26/2014 00:00 MST2.30P  21.7P  0.00P  
    08/26/2014 00:15 MST2.30P  21.7P  0.00P  
    08/26/2014 00:30 MST2.30P  21.7P  0.00P  
    08/26/2014 00:45 MST2.30P  21.7P  0.00P  
    08/26/2014 01:00 MST2.30P  21.7P  0.00P  
    08/26/2014 01:15 MST2.30P  21.7P  0.00P  
    08/26/2014 01:30 MST2.30P  21.7P  0.00P  
    08/26/2014 01:45 MST2.30P  21.7P  0.00P  
    08/26/2014 02:00 MST2.30P  21.7P  0.00P  
    08/26/2014 02:15 MST2.30P  21.7P  0.00P  
    08/26/2014 02:30 MST2.30P  21.7P  0.00P  
    08/26/2014 02:45 MST2.30P  21.7P  0.00P  
    08/26/2014 03:00 MST2.30P  21.7P  0.00P  
    08/26/2014 03:15 MST2.30P  21.7P  0.00P  
    08/26/2014 03:30 MST2.30P  21.7P  0.00P  
    08/26/2014 03:45 MST2.30P  21.7P  0.00P  
    08/26/2014 04:00 MST2.30P  21.7P  0.00P  
    08/26/2014 04:15 MST2.30P  21.7P  0.00P  
    08/26/2014 04:30 MST2.30P  21.7P  0.00P  
    08/26/2014 04:45 MST2.30P  21.7P  0.00P  
    08/26/2014 05:00 MST2.30P  21.7P  0.00P  
    08/26/2014 05:15 MST2.30P  21.7P  0.00P  
    08/26/2014 05:30 MST2.30P  21.7P  0.00P  
    08/26/2014 05:45 MST2.30P  21.7P  0.00P  
    08/26/2014 06:00 MST2.30P  21.7P  0.00P  
    08/26/2014 06:15 MST2.30P  21.7P  0.00P  
    08/26/2014 06:30 MST2.30P  21.7P  0.00P  
    08/26/2014 06:45 MST2.29P  21.1P  0.00P  
    08/26/2014 07:00 MST2.30P  21.7P  0.00P  
    08/26/2014 07:15 MST2.30P  21.7P  0.00P  
    08/26/2014 07:30 MST2.30P  21.7P  0.00P  
    08/26/2014 07:45 MST2.29P  21.1P  0.00P  
    08/26/2014 08:00 MST2.29P  21.1P  0.00P  
    08/26/2014 08:15 MST2.30P  21.7P  0.00P  
    08/26/2014 08:30 MST2.29P  21.1P  0.00P  
    08/26/2014 08:45 MST2.29P  21.1P  0.00P  
    08/26/2014 09:00 MST2.29P  21.1P  0.00P  
    08/26/2014 09:15 MST2.30P  21.7P  0.00P  
    08/26/2014 09:30 MST2.29P  21.1P  0.00P  
    08/26/2014 09:45 MST2.29P  21.1P  0.00P  
    08/26/2014 10:00 MST2.29P  21.1P  0.00P  
    08/26/2014 10:15 MST2.29P  21.1P  0.00P  
    08/26/2014 10:30 MST2.29P  21.1P  0.00P  
    08/26/2014 10:45 MST2.29P  21.1P  0.00P  
    08/26/2014 11:00 MST2.29P  21.1P  0.00P  
    08/26/2014 11:15 MST2.29P  21.1P  0.00P  
    08/26/2014 11:30 MST2.29P  21.1P  0.00P  
    08/26/2014 11:45 MST2.29P  21.1P  0.00P  
    08/26/2014 12:00 MST2.29P  21.1P  0.00P  
    08/26/2014 12:15 MST2.29P  21.1P  0.00P  
    08/26/2014 12:30 MST2.29P  21.1P  0.00P  
    08/26/2014 12:45 MST2.29P  21.1P  0.00P  
    08/26/2014 13:00 MST2.29P  21.1P  0.00P  
    08/26/2014 13:15 MST2.29P  21.1P  0.00P  
    08/26/2014 13:30 MST2.29P  21.1P  0.00P  
    08/26/2014 13:45 MST2.29P  21.1P  0.00P  
    08/26/2014 14:00 MST2.29P  21.1P  0.00P  
    08/26/2014 14:15 MST2.29P  21.1P  0.00P  
    08/26/2014 14:30 MST2.28P  20.4P  0.00P  
    08/26/2014 14:45 MST2.29P  21.1P  0.06P  
    08/26/2014 15:00 MST2.29P  21.1P  0.04P  
    08/26/2014 15:15 MST2.29P  21.1P  0.02P  
    08/26/2014 15:30 MST2.30P  21.7P  0.00P  
    08/26/2014 15:45 MST2.30P  21.7P  0.01P  
    08/26/2014 16:00 MST2.30P  21.7P  0.00P  
    08/26/2014 16:15 MST2.30P  21.7P  0.00P  
    08/26/2014 16:30 MST2.29P  21.1P  0.00P  
    08/26/2014 16:45 MST2.29P  21.1P  0.00P  
    08/26/2014 17:00 MST2.29P  21.1P  0.00P  
    08/26/2014 17:15 MST2.29P  21.1P  0.00P  
    08/26/2014 17:30 MST2.29P  21.1P  0.00P  
    08/26/2014 17:45 MST2.30P  21.7P  0.00P  
    08/26/2014 18:00 MST2.72P  63.4P  0.00P  
    08/26/2014 18:15 MST2.90P  91.0P  0.00P  
    08/26/2014 18:30 MST2.88P  87.6P  0.00P  
    08/26/2014 18:45 MST2.80P  74.8P  0.00P  
    08/26/2014 19:00 MST2.70P  60.7P  0.00P  
    08/26/2014 19:15 MST2.60P  48.5P  0.00P  
    08/26/2014 19:29 MST2.52P  40.0P  0.00P  
    08/26/2014 19:30 MST2.52P  40.0P  0.00P  
    08/26/2014 19:44 MST2.46P  34.3P  0.00P  
    08/26/2014 19:45 MST2.46P  34.3P  0.00P  
    08/26/2014 20:00 MST2.41P  29.9P  0.00P  
    08/26/2014 20:15 MST2.38P  27.5P  0.00P  
    08/26/2014 20:30 MST2.36P  26.0P  0.00P  
    08/26/2014 20:45 MST2.35P  25.2P  0.00P  
    08/26/2014 21:00 MST2.34P  24.5P  0.00P  
    08/26/2014 21:15 MST2.33P  23.8P  0.00P  
    08/26/2014 21:30 MST2.32P  23.1P  0.00P  
    08/26/2014 21:45 MST2.32P  23.1P  0.00P  
    08/26/2014 22:00 MST2.32P  23.1P  0.00P  
    08/26/2014 22:15 MST2.32P  23.1P  0.00P  
    08/26/2014 22:30 MST2.32P  23.1P  0.00P  
    08/26/2014 22:45 MST2.32P  23.1P  0.00P  
    08/26/2014 23:00 MST2.32P  23.1P  0.00P  
    08/26/2014 23:15 MST2.32P  23.1P  0.00P  
    08/26/2014 23:30 MST2.32P  23.1P  0.00P  
    08/26/2014 23:45 MST2.31P  22.4P  0.00P  
    08/27/2014 00:00 MST2.31P  22.4P  0.00P  
    08/27/2014 00:15 MST2.30P  21.7P  0.00P  
    08/27/2014 00:30 MST2.30P  21.7P  0.00P  
    08/27/2014 00:45 MST2.30P  21.7P  0.00P  
    08/27/2014 01:00 MST2.30P  21.7P  0.00P  
    08/27/2014 01:15 MST2.30P  21.7P  0.00P  
    08/27/2014 01:30 MST2.30P  21.7P  0.00P  
    08/27/2014 01:45 MST2.30P  21.7P  0.00P  
    08/27/2014 02:00 MST2.30P  21.7P  0.00P  
    08/27/2014 02:15 MST2.30P  21.7P  0.00P  
    08/27/2014 02:30 MST2.29P  21.1P  0.00P  
    08/27/2014 02:45 MST2.29P  21.1P  0.00P  
    08/27/2014 03:00 MST2.29P  21.1P  0.00P  
    08/27/2014 03:15 MST2.29P  21.1P  0.00P  
    08/27/2014 03:30 MST2.28P  20.4P  0.00P  
    08/27/2014 03:45 MST2.28P  20.4P  0.00P  
    08/27/2014 04:00 MST2.28P  20.4P  0.00P  
    08/27/2014 04:15 MST2.28P  20.4P  0.00P  
    08/27/2014 04:30 MST2.28P  20.4P  0.01P  
    08/27/2014 04:45 MST2.27P  19.8P  0.00P  
    08/27/2014 05:00 MST2.28P  20.4P  0.00P  
    08/27/2014 05:15 MST2.27P  19.8P  0.00P  
    08/27/2014 05:30 MST2.27P  19.8P  0.00P  
    08/27/2014 05:45 MST2.27P  19.8P  0.00P  
    08/27/2014 06:00 MST2.27P  19.8P  0.00P  
    08/27/2014 06:15 MST2.27P  19.8P  0.00P  
    08/27/2014 06:30 MST2.27P  19.8P  0.00P  
    08/27/2014 06:45 MST2.27P  19.8P  0.00P  
    08/27/2014 07:00 MST2.27P  19.8P  0.00P  
    08/27/2014 07:15 MST2.27P  19.8P  0.00P  
    08/27/2014 07:30 MST2.27P  19.8P  0.00P  
    08/27/2014 07:45 MST2.27P  19.8P  0.00P  
    08/27/2014 08:00 MST2.27P  19.8P  0.00P  
    08/27/2014 08:15 MST2.27P  19.8P  0.00P  
    08/27/2014 08:30 MST2.27P  19.8P  0.00P  
    08/27/2014 08:45 MST2.27P  19.8P  0.00P  
    08/27/2014 09:00 MST2.27P  19.8P  0.00P  
    08/27/2014 09:15 MST2.27P  19.8P  0.00P  
    08/27/2014 09:30 MST2.27P  19.8P  0.00P  
    08/27/2014 09:45 MST2.27P  19.8P  0.00P  
    08/27/2014 10:00 MST2.28P  20.4P  0.00P  
    08/27/2014 10:15 MST2.28P  20.4P  0.00P  
    08/27/2014 10:30 MST2.28P  20.4P  0.00P  
    08/27/2014 10:45 MST2.29P  21.1P  0.00P  
    08/27/2014 11:00 MST2.30P  21.7P  0.00P  
    08/27/2014 11:15 MST2.37P  26.8P  0.00P  
    08/27/2014 11:30 MST2.97P  104P  0.00P  
    08/27/2014 11:45 MST3.19P  150P  0.00P  
    08/27/2014 12:00 MST3.26P  168P  0.00P  
    08/27/2014 12:15 MST3.32P  184P  0.00P  
    08/27/2014 12:30 MST3.30P  178P  0.00P  
    08/27/2014 12:45 MST3.33P  186P  0.00P  
    08/27/2014 13:00 MST3.33P  186P  0.00P  

    Explanation
      P  Provisional data subject to revision.